<?xml version="1.0" encoding="UTF-8" standalone="no" ?>
<gpx xmlns="http://www.topografix.com/GPX/1/1" xmlns:xsi="http://www.w3.org/2001/XMLSchema-instance" xsi:schemaLocation="http://www.topografix.com/GPX/1/1 http://www.topografix.com/GPX/1/1/gpx.xsd" version="1.1" creator="VisuGPX - https://www.visugpx.com">
  <metadata>
    <name>Les Moulins de la Véroncle</name>
    <desc><![CDATA[Parcours du 13 juin 2010 effectué par 11 randonneurs du SCLapalud.]]></desc>
  </metadata>
  <trk>
    <name><![CDATA[ACTIVE LOG 001]]></name>
    <trkseg>
      <trkpt lat="43.91589" lon="5.22694">
        <ele>210.185425</ele>
        <time>2010-06-13T09:43:17Z</time>
      </trkpt>
      <trkpt lat="43.91573" lon="5.22797">
        <ele>213.069336</ele>
        <time>2010-06-13T09:50:45Z</time>
      </trkpt>
      <trkpt lat="43.91643" lon="5.22819">
        <ele>210.185425</ele>
        <time>2010-06-13T09:52:46Z</time>
      </trkpt>
      <trkpt lat="43.91737" lon="5.22876">
        <ele>207.301392</ele>
        <time>2010-06-13T09:54:53Z</time>
      </trkpt>
      <trkpt lat="43.91859" lon="5.22838">
        <ele>213.550049</ele>
        <time>2010-06-13T09:58:19Z</time>
      </trkpt>
      <trkpt lat="43.91946" lon="5.22732">
        <ele>234.699097</ele>
        <time>2010-06-13T10:09:18Z</time>
      </trkpt>
      <trkpt lat="43.92106" lon="5.22619">
        <ele>243.831543</ele>
        <time>2010-06-13T10:14:19Z</time>
      </trkpt>
      <trkpt lat="43.92203" lon="5.22571">
        <ele>251.041382</ele>
        <time>2010-06-13T10:23:17Z</time>
      </trkpt>
      <trkpt lat="43.92293" lon="5.22535">
        <ele>262.577148</ele>
        <time>2010-06-13T10:25:19Z</time>
      </trkpt>
      <trkpt lat="43.92383" lon="5.22391">
        <ele>269.306519</ele>
        <time>2010-06-13T10:28:39Z</time>
      </trkpt>
      <trkpt lat="43.92394" lon="5.22284">
        <ele>283.245605</ele>
        <time>2010-06-13T10:33:12Z</time>
      </trkpt>
      <trkpt lat="43.92492" lon="5.22196">
        <ele>299.1073</ele>
        <time>2010-06-13T10:37:16Z</time>
      </trkpt>
      <trkpt lat="43.92635" lon="5.22207">
        <ele>302.952515</ele>
        <time>2010-06-13T10:42:56Z</time>
      </trkpt>
      <trkpt lat="43.92714" lon="5.22124">
        <ele>315.449829</ele>
        <time>2010-06-13T10:46:54Z</time>
      </trkpt>
      <trkpt lat="43.92695" lon="5.22196">
        <ele>296.223511</ele>
        <time>2010-06-13T10:58:29Z</time>
      </trkpt>
      <trkpt lat="43.92849" lon="5.22261">
        <ele>307.278564</ele>
        <time>2010-06-13T11:07:08Z</time>
      </trkpt>
      <trkpt lat="43.92916" lon="5.22181">
        <ele>314.488403</ele>
        <time>2010-06-13T11:09:15Z</time>
      </trkpt>
      <trkpt lat="43.9302" lon="5.22241">
        <ele>323.620972</ele>
        <time>2010-06-13T11:11:48Z</time>
      </trkpt>
      <trkpt lat="43.93102" lon="5.22191">
        <ele>332.75354</ele>
        <time>2010-06-13T11:14:34Z</time>
      </trkpt>
      <trkpt lat="43.93113" lon="5.22056">
        <ele>342.84729</ele>
        <time>2010-06-13T11:18:50Z</time>
      </trkpt>
      <trkpt lat="43.93205" lon="5.22138">
        <ele>355.344482</ele>
        <time>2010-06-13T11:22:42Z</time>
      </trkpt>
      <trkpt lat="43.93334" lon="5.2212">
        <ele>363.996338</ele>
        <time>2010-06-13T11:27:21Z</time>
      </trkpt>
      <trkpt lat="43.93477" lon="5.22121">
        <ele>373.609497</ele>
        <time>2010-06-13T11:33:23Z</time>
      </trkpt>
      <trkpt lat="43.93647" lon="5.22096">
        <ele>374.090088</ele>
        <time>2010-06-13T11:38:21Z</time>
      </trkpt>
      <trkpt lat="43.93893" lon="5.22156">
        <ele>380.338745</ele>
        <time>2010-06-13T11:46:12Z</time>
      </trkpt>
      <trkpt lat="43.93958" lon="5.2212">
        <ele>399.084351</ele>
        <time>2010-06-13T11:52:58Z</time>
      </trkpt>
      <trkpt lat="43.94024" lon="5.22187">
        <ele>387.067993</ele>
        <time>2010-06-13T11:54:58Z</time>
      </trkpt>
      <trkpt lat="43.94093" lon="5.22322">
        <ele>390.913208</ele>
        <time>2010-06-13T11:57:39Z</time>
      </trkpt>
      <trkpt lat="43.94225" lon="5.22234">
        <ele>399.084351</ele>
        <time>2010-06-13T12:00:20Z</time>
      </trkpt>
      <trkpt lat="43.94274" lon="5.22385">
        <ele>399.565063</ele>
        <time>2010-06-13T12:04:06Z</time>
      </trkpt>
      <trkpt lat="43.94389" lon="5.22405">
        <ele>401.968506</ele>
        <time>2010-06-13T12:06:34Z</time>
      </trkpt>
      <trkpt lat="43.94408" lon="5.22406">
        <ele>424.559448</ele>
        <time>2010-06-13T12:57:48Z</time>
      </trkpt>
      <trkpt lat="43.94507" lon="5.22497">
        <ele>430.327271</ele>
        <time>2010-06-13T13:00:23Z</time>
      </trkpt>
      <trkpt lat="43.94532" lon="5.22589">
        <ele>443.785767</ele>
        <time>2010-06-13T13:02:43Z</time>
      </trkpt>
      <trkpt lat="43.94594" lon="5.22711">
        <ele>441.863159</ele>
        <time>2010-06-13T13:04:49Z</time>
      </trkpt>
      <trkpt lat="43.94695" lon="5.22811">
        <ele>437.537109</ele>
        <time>2010-06-13T13:07:14Z</time>
      </trkpt>
      <trkpt lat="43.94767" lon="5.22896">
        <ele>436.575928</ele>
        <time>2010-06-13T13:09:24Z</time>
      </trkpt>
      <trkpt lat="43.94868" lon="5.22959">
        <ele>439.459717</ele>
        <time>2010-06-13T13:11:44Z</time>
      </trkpt>
      <trkpt lat="43.94856" lon="5.23087">
        <ele>440.421265</ele>
        <time>2010-06-13T13:13:41Z</time>
      </trkpt>
      <trkpt lat="43.94891" lon="5.23201">
        <ele>445.708374</ele>
        <time>2010-06-13T13:15:23Z</time>
      </trkpt>
      <trkpt lat="43.9492" lon="5.23329">
        <ele>449.553711</ele>
        <time>2010-06-13T13:16:54Z</time>
      </trkpt>
      <trkpt lat="43.9498" lon="5.23752">
        <ele>454.360229</ele>
        <time>2010-06-13T13:18:34Z</time>
      </trkpt>
      <trkpt lat="43.95022" lon="5.23828">
        <ele>458.205566</ele>
        <time>2010-06-13T13:21:24Z</time>
      </trkpt>
      <trkpt lat="43.95095" lon="5.23901">
        <ele>467.338135</ele>
        <time>2010-06-13T13:23:00Z</time>
      </trkpt>
      <trkpt lat="43.95171" lon="5.23972">
        <ele>475.989868</ele>
        <time>2010-06-13T13:24:40Z</time>
      </trkpt>
      <trkpt lat="43.95149" lon="5.24013">
        <ele>483.68042</ele>
        <time>2010-06-13T13:26:13Z</time>
      </trkpt>
      <trkpt lat="43.95106" lon="5.24103">
        <ele>491.851685</ele>
        <time>2010-06-13T13:28:52Z</time>
      </trkpt>
      <trkpt lat="43.95121" lon="5.24195">
        <ele>498.580933</ele>
        <time>2010-06-13T13:32:12Z</time>
      </trkpt>
      <trkpt lat="43.95116" lon="5.24315">
        <ele>498.100342</ele>
        <time>2010-06-13T13:35:43Z</time>
      </trkpt>
      <trkpt lat="43.95038" lon="5.24282">
        <ele>499.542236</ele>
        <time>2010-06-13T13:37:28Z</time>
      </trkpt>
      <trkpt lat="43.94955" lon="5.24221">
        <ele>500.984131</ele>
        <time>2010-06-13T13:39:28Z</time>
      </trkpt>
      <trkpt lat="43.94886" lon="5.24138">
        <ele>501.464844</ele>
        <time>2010-06-13T13:41:07Z</time>
      </trkpt>
      <trkpt lat="43.94867" lon="5.24016">
        <ele>501.945557</ele>
        <time>2010-06-13T13:42:40Z</time>
      </trkpt>
      <trkpt lat="43.94819" lon="5.23905">
        <ele>502.426147</ele>
        <time>2010-06-13T13:44:11Z</time>
      </trkpt>
      <trkpt lat="43.94757" lon="5.23811">
        <ele>502.426147</ele>
        <time>2010-06-13T13:45:39Z</time>
      </trkpt>
      <trkpt lat="43.94689" lon="5.23717">
        <ele>501.945557</ele>
        <time>2010-06-13T13:46:59Z</time>
      </trkpt>
      <trkpt lat="43.94642" lon="5.23614">
        <ele>501.464844</ele>
        <time>2010-06-13T13:48:17Z</time>
      </trkpt>
      <trkpt lat="43.94557" lon="5.2353">
        <ele>501.464844</ele>
        <time>2010-06-13T13:49:54Z</time>
      </trkpt>
      <trkpt lat="43.94499" lon="5.23425">
        <ele>502.906738</ele>
        <time>2010-06-13T13:51:30Z</time>
      </trkpt>
      <trkpt lat="43.94457" lon="5.23311">
        <ele>505.790894</ele>
        <time>2010-06-13T13:53:15Z</time>
      </trkpt>
      <trkpt lat="43.94391" lon="5.23215">
        <ele>509.155396</ele>
        <time>2010-06-13T13:54:41Z</time>
      </trkpt>
      <trkpt lat="43.94309" lon="5.23162">
        <ele>508.674683</ele>
        <time>2010-06-13T13:56:07Z</time>
      </trkpt>
      <trkpt lat="43.94245" lon="5.23069">
        <ele>513.962036</ele>
        <time>2010-06-13T13:57:28Z</time>
      </trkpt>
      <trkpt lat="43.94167" lon="5.23003">
        <ele>515.884644</ele>
        <time>2010-06-13T13:58:57Z</time>
      </trkpt>
      <trkpt lat="43.9407" lon="5.22927">
        <ele>511.558716</ele>
        <time>2010-06-13T14:00:50Z</time>
      </trkpt>
      <trkpt lat="43.94038" lon="5.22807">
        <ele>509.155396</ele>
        <time>2010-06-13T14:02:23Z</time>
      </trkpt>
      <trkpt lat="43.93978" lon="5.22719">
        <ele>506.752075</ele>
        <time>2010-06-13T14:03:54Z</time>
      </trkpt>
      <trkpt lat="43.93899" lon="5.22661">
        <ele>498.100342</ele>
        <time>2010-06-13T14:05:39Z</time>
      </trkpt>
      <trkpt lat="43.9384" lon="5.22581">
        <ele>491.851685</ele>
        <time>2010-06-13T14:07:19Z</time>
      </trkpt>
      <trkpt lat="43.93755" lon="5.22552">
        <ele>487.045044</ele>
        <time>2010-06-13T14:09:03Z</time>
      </trkpt>
      <trkpt lat="43.93664" lon="5.22569">
        <ele>480.796631</ele>
        <time>2010-06-13T14:11:29Z</time>
      </trkpt>
      <trkpt lat="43.93595" lon="5.22639">
        <ele>474.067261</ele>
        <time>2010-06-13T14:13:04Z</time>
      </trkpt>
      <trkpt lat="43.93558" lon="5.22752">
        <ele>464.454102</ele>
        <time>2010-06-13T14:14:52Z</time>
      </trkpt>
      <trkpt lat="43.93473" lon="5.22797">
        <ele>457.244263</ele>
        <time>2010-06-13T14:16:23Z</time>
      </trkpt>
      <trkpt lat="43.93394" lon="5.22857">
        <ele>449.553711</ele>
        <time>2010-06-13T14:17:44Z</time>
      </trkpt>
      <trkpt lat="43.93325" lon="5.22937">
        <ele>440.901855</ele>
        <time>2010-06-13T14:19:01Z</time>
      </trkpt>
      <trkpt lat="43.93274" lon="5.23008">
        <ele>431.769165</ele>
        <time>2010-06-13T14:20:41Z</time>
      </trkpt>
      <trkpt lat="43.93185" lon="5.23023">
        <ele>422.636719</ele>
        <time>2010-06-13T14:22:19Z</time>
      </trkpt>
      <trkpt lat="43.93138" lon="5.23105">
        <ele>413.504272</ele>
        <time>2010-06-13T14:24:22Z</time>
      </trkpt>
      <trkpt lat="43.93139" lon="5.2322">
        <ele>402.449097</ele>
        <time>2010-06-13T14:26:00Z</time>
      </trkpt>
      <trkpt lat="43.93099" lon="5.23323">
        <ele>388.029297</ele>
        <time>2010-06-13T14:27:40Z</time>
      </trkpt>
      <trkpt lat="43.93039" lon="5.2343">
        <ele>377.454834</ele>
        <time>2010-06-13T14:29:13Z</time>
      </trkpt>
      <trkpt lat="43.92959" lon="5.23498">
        <ele>367.360962</ele>
        <time>2010-06-13T14:30:43Z</time>
      </trkpt>
      <trkpt lat="43.92884" lon="5.23568">
        <ele>356.305786</ele>
        <time>2010-06-13T14:36:17Z</time>
      </trkpt>
      <trkpt lat="43.92818" lon="5.2365">
        <ele>347.173218</ele>
        <time>2010-06-13T14:38:16Z</time>
      </trkpt>
      <trkpt lat="43.92761" lon="5.23741">
        <ele>339.002075</ele>
        <time>2010-06-13T14:40:07Z</time>
      </trkpt>
      <trkpt lat="43.92759" lon="5.23866">
        <ele>332.75354</ele>
        <time>2010-06-13T14:41:35Z</time>
      </trkpt>
      <trkpt lat="43.9272" lon="5.23982">
        <ele>324.101563</ele>
        <time>2010-06-13T14:44:39Z</time>
      </trkpt>
      <trkpt lat="43.92687" lon="5.24099">
        <ele>316.411011</ele>
        <time>2010-06-13T14:46:05Z</time>
      </trkpt>
      <trkpt lat="43.92674" lon="5.24225">
        <ele>312.085205</ele>
        <time>2010-06-13T14:47:27Z</time>
      </trkpt>
      <trkpt lat="43.92664" lon="5.2435">
        <ele>306.797852</ele>
        <time>2010-06-13T14:48:47Z</time>
      </trkpt>
      <trkpt lat="43.9264" lon="5.24474">
        <ele>299.588013</ele>
        <time>2010-06-13T14:50:11Z</time>
      </trkpt>
      <trkpt lat="43.92631" lon="5.246">
        <ele>293.820068</ele>
        <time>2010-06-13T14:51:40Z</time>
      </trkpt>
      <trkpt lat="43.92623" lon="5.24725">
        <ele>287.571411</ele>
        <time>2010-06-13T14:53:01Z</time>
      </trkpt>
      <trkpt lat="43.92637" lon="5.24848">
        <ele>284.687622</ele>
        <time>2010-06-13T14:54:22Z</time>
      </trkpt>
      <trkpt lat="43.92669" lon="5.24966">
        <ele>282.284302</ele>
        <time>2010-06-13T14:55:49Z</time>
      </trkpt>
      <trkpt lat="43.92665" lon="5.25093">
        <ele>276.99707</ele>
        <time>2010-06-13T14:57:26Z</time>
      </trkpt>
      <trkpt lat="43.9258" lon="5.25144">
        <ele>260.654541</ele>
        <time>2010-06-13T15:02:31Z</time>
      </trkpt>
      <trkpt lat="43.92537" lon="5.25126">
        <ele>245.273438</ele>
        <time>2010-06-13T15:11:09Z</time>
      </trkpt>
      <trkpt lat="43.92499" lon="5.25063">
        <ele>237.582886</ele>
        <time>2010-06-13T15:14:40Z</time>
      </trkpt>
      <trkpt lat="43.9243" lon="5.24969">
        <ele>232.295776</ele>
        <time>2010-06-13T15:16:18Z</time>
      </trkpt>
      <trkpt lat="43.92363" lon="5.24881">
        <ele>234.218384</ele>
        <time>2010-06-13T15:17:54Z</time>
      </trkpt>
      <trkpt lat="43.92328" lon="5.24759">
        <ele>233.737671</ele>
        <time>2010-06-13T15:19:20Z</time>
      </trkpt>
      <trkpt lat="43.92264" lon="5.2467">
        <ele>224.605225</ele>
        <time>2010-06-13T15:20:57Z</time>
      </trkpt>
      <trkpt lat="43.92181" lon="5.24607">
        <ele>215.472656</ele>
        <time>2010-06-13T15:22:21Z</time>
      </trkpt>
      <trkpt lat="43.92133" lon="5.24504">
        <ele>212.108032</ele>
        <time>2010-06-13T15:23:41Z</time>
      </trkpt>
      <trkpt lat="43.9209" lon="5.24399">
        <ele>208.743408</ele>
        <time>2010-06-13T15:25:10Z</time>
      </trkpt>
      <trkpt lat="43.92031" lon="5.24335">
        <ele>205.859497</ele>
        <time>2010-06-13T15:27:20Z</time>
      </trkpt>
      <trkpt lat="43.91969" lon="5.24224">
        <ele>206.820679</ele>
        <time>2010-06-13T15:28:46Z</time>
      </trkpt>
      <trkpt lat="43.91915" lon="5.24121">
        <ele>205.859497</ele>
        <time>2010-06-13T15:30:04Z</time>
      </trkpt>
      <trkpt lat="43.9189" lon="5.24004">
        <ele>204.898071</ele>
        <time>2010-06-13T15:31:50Z</time>
      </trkpt>
      <trkpt lat="43.91852" lon="5.23883">
        <ele>203.93689</ele>
        <time>2010-06-13T15:33:10Z</time>
      </trkpt>
      <trkpt lat="43.91811" lon="5.23754">
        <ele>202.975464</ele>
        <time>2010-06-13T15:34:38Z</time>
      </trkpt>
      <trkpt lat="43.91751" lon="5.23629">
        <ele>204.41748</ele>
        <time>2010-06-13T15:36:14Z</time>
      </trkpt>
      <trkpt lat="43.91717" lon="5.23495">
        <ele>202.494873</ele>
        <time>2010-06-13T15:38:19Z</time>
      </trkpt>
      <trkpt lat="43.91701" lon="5.23383">
        <ele>204.41748</ele>
        <time>2010-06-13T15:40:01Z</time>
      </trkpt>
      <trkpt lat="43.91649" lon="5.23226">
        <ele>209.704834</ele>
        <time>2010-06-13T15:41:51Z</time>
      </trkpt>
      <trkpt lat="43.91662" lon="5.23087">
        <ele>210.185425</ele>
        <time>2010-06-13T15:43:23Z</time>
      </trkpt>
      <trkpt lat="43.91664" lon="5.22933">
        <ele>211.146729</ele>
        <time>2010-06-13T15:45:03Z</time>
      </trkpt>
      <trkpt lat="43.91579" lon="5.2286">
        <ele>202.494873</ele>
        <time>2010-06-13T15:47:12Z</time>
      </trkpt>
      <trkpt lat="43.91575" lon="5.22709">
        <ele>209.224121</ele>
        <time>2010-06-13T15:51:11Z</time>
      </trkpt>
      <trkpt lat="43.91568" lon="5.22677">
        <ele>207.782104</ele>
        <time>2010-06-13T15:55:46Z</time>
      </trkpt>
    </trkseg>
  </trk>
</gpx>